sensor_id;sensor_type;location;lat;lon;timestamp;P1;durP1;ratioP1;P2;durP2;ratioP2
23539;SDS011;11947;50.810;4.394;2023-04-03T00:01:06;23.63;;;11.82;;
23539;SDS011;11947;50.810;4.394;2023-04-03T00:03:32;24.35;;;11.63;;
23539;SDS011;11947;50.810;4.394;2023-04-03T00:05:58;25.88;;;11.88;;
23539;SDS011;11947;50.810;4.394;2023-04-03T00:08:24;26.60;;;12.30;;
23539;SDS011;11947;50.810;4.394;2023-04-03T00:10:50;21.92;;;11.50;;
23539;SDS011;11947;50.810;4.394;2023-04-03T00:13:15;25.23;;;12.00;;
23539;SDS011;11947;50.810;4.394;2023-04-03T00:15:41;26.10;;;12.02;;
23539;SDS011;11947;50.810;4.394;2023-04-03T00:18:08;23.63;;;11.52;;
23539;SDS011;11947;50.810;4.394;2023-04-03T00:20:33;23.13;;;11.63;;
23539;SDS011;11947;50.810;4.394;2023-04-03T00:23:00;21.33;;;10.82;;
23539;SDS011;11947;50.810;4.394;2023-04-03T00:25:26;23.27;;;11.43;;
23539;SDS011;11947;50.810;4.394;2023-04-03T00:27:52;28.00;;;12.07;;
23539;SDS011;11947;50.810;4.394;2023-04-03T00:30:18;23.73;;;11.52;;
23539;SDS011;11947;50.810;4.394;2023-04-03T00:32:46;23.42;;;11.23;;
23539;SDS011;11947;50.810;4.394;2023-04-03T00:35:16;22.20;;;11.07;;
23539;SDS011;11947;50.810;4.394;2023-04-03T00:37:42;20.52;;;10.85;;
23539;SDS011;11947;50.810;4.394;2023-04-03T00:40:08;22.48;;;11.48;;
23539;SDS011;11947;50.810;4.394;2023-04-03T00:42:39;20.33;;;10.32;;
23539;SDS011;11947;50.810;4.394;2023-04-03T00:47:31;24.58;;;11.05;;
23539;SDS011;11947;50.810;4.394;2023-04-03T00:49:57;25.65;;;10.50;;
23539;SDS011;11947;50.810;4.394;2023-04-03T00:52:25;24.35;;;10.73;;
23539;SDS011;11947;50.810;4.394;2023-04-03T00:54:54;23.92;;;10.77;;
23539;SDS011;11947;50.810;4.394;2023-04-03T00:57:27;22.13;;;10.20;;
23539;SDS011;11947;50.810;4.394;2023-04-03T00:59:58;20.10;;;9.95;;
23539;SDS011;11947;50.810;4.394;2023-04-03T01:02:29;21.73;;;10.30;;
23539;SDS011;11947;50.810;4.394;2023-04-03T01:04:55;21.23;;;10.15;;
23539;SDS011;11947;50.810;4.394;2023-04-03T01:07:21;19.55;;;10.27;;
23539;SDS011;11947;50.810;4.394;2023-04-03T01:09:52;22.92;;;10.55;;
23539;SDS011;11947;50.810;4.394;2023-04-03T01:14:53;21.10;;;10.15;;
23539;SDS011;11947;50.810;4.394;2023-04-03T01:25:45;22.48;;;10.13;;
23539;SDS011;11947;50.810;4.394;2023-04-03T01:28:17;21.63;;;9.63;;
23539;SDS011;11947;50.810;4.394;2023-04-03T01:33:29;18.98;;;8.80;;
23539;SDS011;11947;50.810;4.394;2023-04-03T01:35:55;20.10;;;9.07;;
23539;SDS011;11947;50.810;4.394;2023-04-03T01:38:21;18.70;;;9.43;;
23539;SDS011;11947;50.810;4.394;2023-04-03T01:40:46;19.52;;;8.88;;
23539;SDS011;11947;50.810;4.394;2023-04-03T01:43:12;18.38;;;9.60;;
23539;SDS011;11947;50.810;4.394;2023-04-03T01:45:38;21.60;;;9.95;;
23539;SDS011;11947;50.810;4.394;2023-04-03T01:48:03;20.90;;;9.60;;
23539;SDS011;11947;50.810;4.394;2023-04-03T01:50:29;16.45;;;9.05;;
23539;SDS011;11947;50.810;4.394;2023-04-03T01:52:55;20.13;;;9.52;;
23539;SDS011;11947;50.810;4.394;2023-04-03T01:55:20;20.77;;;9.43;;
23539;SDS011;11947;50.810;4.394;2023-04-03T01:57:46;16.70;;;9.00;;
23539;SDS011;11947;50.810;4.394;2023-04-03T02:00:12;21.10;;;10.13;;
23539;SDS011;11947;50.810;4.394;2023-04-03T02:02:38;20.67;;;9.80;;
23539;SDS011;11947;50.810;4.394;2023-04-03T02:05:04;22.15;;;10.02;;
23539;SDS011;11947;50.810;4.394;2023-04-03T02:07:30;17.98;;;9.20;;
23539;SDS011;11947;50.810;4.394;2023-04-03T02:09:55;20.60;;;9.43;;
23539;SDS011;11947;50.810;4.394;2023-04-03T02:12:21;19.20;;;9.70;;
23539;SDS011;11947;50.810;4.394;2023-04-03T02:14:46;17.98;;;9.63;;
23539;SDS011;11947;50.810;4.394;2023-04-03T02:17:12;19.58;;;9.52;;
23539;SDS011;11947;50.810;4.394;2023-04-03T02:19:38;22.25;;;9.15;;
23539;SDS011;11947;50.810;4.394;2023-04-03T02:22:04;18.88;;;9.40;;
23539;SDS011;11947;50.810;4.394;2023-04-03T02:24:30;22.08;;;9.73;;
23539;SDS011;11947;50.810;4.394;2023-04-03T02:26:56;19.73;;;9.10;;
23539;SDS011;11947;50.810;4.394;2023-04-03T02:29:22;20.73;;;9.00;;
23539;SDS011;11947;50.810;4.394;2023-04-03T02:31:48;24.05;;;9.13;;
23539;SDS011;11947;50.810;4.394;2023-04-03T02:34:14;22.50;;;9.52;;
23539;SDS011;11947;50.810;4.394;2023-04-03T02:36:40;22.73;;;9.38;;
23539;SDS011;11947;50.810;4.394;2023-04-03T02:39:05;20.27;;;10.02;;
23539;SDS011;11947;50.810;4.394;2023-04-03T02:41:31;19.38;;;9.20;;
23539;SDS011;11947;50.810;4.394;2023-04-03T02:44:03;19.02;;;9.23;;
23539;SDS011;11947;50.810;4.394;2023-04-03T02:46:30;20.10;;;8.80;;
23539;SDS011;11947;50.810;4.394;2023-04-03T02:48:56;18.48;;;9.23;;
23539;SDS011;11947;50.810;4.394;2023-04-03T02:51:22;15.77;;;8.73;;
23539;SDS011;11947;50.810;4.394;2023-04-03T02:53:48;20.02;;;9.23;;
23539;SDS011;11947;50.810;4.394;2023-04-03T02:56:14;22.38;;;9.05;;
23539;SDS011;11947;50.810;4.394;2023-04-03T02:58:40;18.88;;;8.50;;
23539;SDS011;11947;50.810;4.394;2023-04-03T03:01:05;18.00;;;9.65;;
23539;SDS011;11947;50.810;4.394;2023-04-03T03:03:31;16.95;;;8.93;;
23539;SDS011;11947;50.810;4.394;2023-04-03T03:06:15;20.67;;;9.80;;
23539;SDS011;11947;50.810;4.394;2023-04-03T03:08:42;17.67;;;9.18;;
23539;SDS011;11947;50.810;4.394;2023-04-03T03:11:08;20.77;;;8.98;;
23539;SDS011;11947;50.810;4.394;2023-04-03T03:13:34;20.10;;;9.80;;
23539;SDS011;11947;50.810;4.394;2023-04-03T03:16:00;20.15;;;9.45;;
23539;SDS011;11947;50.810;4.394;2023-04-03T03:18:26;22.20;;;9.80;;
23539;SDS011;11947;50.810;4.394;2023-04-03T03:20:55;17.85;;;8.98;;
23539;SDS011;11947;50.810;4.394;2023-04-03T03:23:23;22.23;;;9.45;;
23539;SDS011;11947;50.810;4.394;2023-04-03T03:25:54;20.60;;;9.57;;
23539;SDS011;11947;50.810;4.394;2023-04-03T03:28:30;18.40;;;9.95;;
23539;SDS011;11947;50.810;4.394;2023-04-03T03:30:56;19.52;;;9.32;;
23539;SDS011;11947;50.810;4.394;2023-04-03T03:33:22;23.67;;;9.98;;
23539;SDS011;11947;50.810;4.394;2023-04-03T03:35:48;20.98;;;9.55;;
23539;SDS011;11947;50.810;4.394;2023-04-03T03:38:14;20.50;;;9.85;;
23539;SDS011;11947;50.810;4.394;2023-04-03T03:40:40;24.50;;;9.63;;
23539;SDS011;11947;50.810;4.394;2023-04-03T03:43:05;19.10;;;9.15;;
23539;SDS011;11947;50.810;4.394;2023-04-03T03:45:31;19.63;;;10.27;;
23539;SDS011;11947;50.810;4.394;2023-04-03T03:47:57;21.15;;;10.13;;
23539;SDS011;11947;50.810;4.394;2023-04-03T03:50:23;23.63;;;10.15;;
23539;SDS011;11947;50.810;4.394;2023-04-03T03:52:48;21.52;;;9.88;;
23539;SDS011;11947;50.810;4.394;2023-04-03T03:55:14;21.38;;;10.32;;
23539;SDS011;11947;50.810;4.394;2023-04-03T03:57:39;21.17;;;9.75;;
23539;SDS011;11947;50.810;4.394;2023-04-03T04:00:05;24.17;;;11.00;;
23539;SDS011;11947;50.810;4.394;2023-04-03T04:02:34;23.98;;;10.65;;
23539;SDS011;11947;50.810;4.394;2023-04-03T04:05:00;20.17;;;10.30;;
23539;SDS011;11947;50.810;4.394;2023-04-03T04:07:25;23.60;;;10.02;;
23539;SDS011;11947;50.810;4.394;2023-04-03T04:09:53;18.60;;;9.65;;
23539;SDS011;11947;50.810;4.394;2023-04-03T04:12:19;20.77;;;9.60;;
23539;SDS011;11947;50.810;4.394;2023-04-03T04:14:45;24.73;;;11.23;;
23539;SDS011;11947;50.810;4.394;2023-04-03T04:17:11;22.67;;;10.70;;
23539;SDS011;11947;50.810;4.394;2023-04-03T04:19:37;23.92;;;10.82;;
23539;SDS011;11947;50.810;4.394;2023-04-03T04:22:03;22.38;;;10.95;;
23539;SDS011;11947;50.810;4.394;2023-04-03T04:24:29;22.33;;;10.65;;
23539;SDS011;11947;50.810;4.394;2023-04-03T04:26:54;19.40;;;9.88;;
23539;SDS011;11947;50.810;4.394;2023-04-03T04:29:20;22.13;;;10.43;;
23539;SDS011;11947;50.810;4.394;2023-04-03T04:31:45;28.52;;;10.85;;
23539;SDS011;11947;50.810;4.394;2023-04-03T04:34:11;20.55;;;10.55;;
23539;SDS011;11947;50.810;4.394;2023-04-03T04:36:38;25.27;;;11.30;;
23539;SDS011;11947;50.810;4.394;2023-04-03T04:39:04;24.60;;;11.73;;
23539;SDS011;11947;50.810;4.394;2023-04-03T04:41:30;23.42;;;10.15;;
23539;SDS011;11947;50.810;4.394;2023-04-03T04:43:56;26.05;;;11.00;;
23539;SDS011;11947;50.810;4.394;2023-04-03T04:46:22;26.17;;;10.85;;
23539;SDS011;11947;50.810;4.394;2023-04-03T04:48:47;25.75;;;12.00;;
23539;SDS011;11947;50.810;4.394;2023-04-03T04:51:14;27.52;;;12.05;;
23539;SDS011;11947;50.810;4.394;2023-04-03T04:53:40;25.33;;;11.65;;
23539;SDS011;11947;50.810;4.394;2023-04-03T04:56:06;25.25;;;11.48;;
23539;SDS011;11947;50.810;4.394;2023-04-03T04:58:32;27.50;;;12.48;;
23539;SDS011;11947;50.810;4.394;2023-04-03T05:01:05;27.10;;;12.00;;
23539;SDS011;11947;50.810;4.394;2023-04-03T05:03:32;30.38;;;12.02;;
23539;SDS011;11947;50.810;4.394;2023-04-03T05:05:58;27.65;;;12.95;;
23539;SDS011;11947;50.810;4.394;2023-04-03T05:08:24;29.10;;;12.57;;
23539;SDS011;11947;50.810;4.394;2023-04-03T05:10:50;32.25;;;12.88;;
23539;SDS011;11947;50.810;4.394;2023-04-03T05:13:16;28.45;;;12.73;;
23539;SDS011;11947;50.810;4.394;2023-04-03T05:15:41;27.80;;;12.65;;
23539;SDS011;11947;50.810;4.394;2023-04-03T05:18:07;28.80;;;12.38;;
23539;SDS011;11947;50.810;4.394;2023-04-03T05:20:33;32.08;;;12.52;;
23539;SDS011;11947;50.810;4.394;2023-04-03T05:22:59;28.65;;;12.75;;
23539;SDS011;11947;50.810;4.394;2023-04-03T05:25:25;27.48;;;12.45;;
23539;SDS011;11947;50.810;4.394;2023-04-03T05:27:51;28.65;;;13.15;;
23539;SDS011;11947;50.810;4.394;2023-04-03T05:30:16;27.35;;;12.43;;
23539;SDS011;11947;50.810;4.394;2023-04-03T05:32:42;28.20;;;12.30;;
23539;SDS011;11947;50.810;4.394;2023-04-03T05:35:08;29.40;;;13.60;;
23539;SDS011;11947;50.810;4.394;2023-04-03T05:37:34;30.05;;;13.07;;
23539;SDS011;11947;50.810;4.394;2023-04-03T05:40:00;28.52;;;13.45;;
23539;SDS011;11947;50.810;4.394;2023-04-03T05:42:27;29.48;;;13.48;;
23539;SDS011;11947;50.810;4.394;2023-04-03T05:44:52;31.15;;;14.13;;
23539;SDS011;11947;50.810;4.394;2023-04-03T05:47:18;29.70;;;14.43;;
23539;SDS011;11947;50.810;4.394;2023-04-03T05:49:44;31.05;;;13.13;;
23539;SDS011;11947;50.810;4.394;2023-04-03T05:52:23;28.48;;;13.80;;
23539;SDS011;11947;50.810;4.394;2023-04-03T05:54:52;31.10;;;14.20;;
23539;SDS011;11947;50.810;4.394;2023-04-03T05:57:17;30.85;;;13.38;;
23539;SDS011;11947;50.810;4.394;2023-04-03T05:59:44;29.45;;;14.23;;
23539;SDS011;11947;50.810;4.394;2023-04-03T06:02:11;29.88;;;14.93;;
23539;SDS011;11947;50.810;4.394;2023-04-03T06:04:38;31.98;;;14.52;;
23539;SDS011;11947;50.810;4.394;2023-04-03T06:07:04;30.67;;;14.25;;
23539;SDS011;11947;50.810;4.394;2023-04-03T06:09:30;29.20;;;14.15;;
23539;SDS011;11947;50.810;4.394;2023-04-03T06:11:56;29.35;;;14.18;;
23539;SDS011;11947;50.810;4.394;2023-04-03T06:14:24;30.58;;;14.65;;
23539;SDS011;11947;50.810;4.394;2023-04-03T06:16:50;28.13;;;14.15;;
23539;SDS011;11947;50.810;4.394;2023-04-03T06:19:16;29.17;;;14.23;;
23539;SDS011;11947;50.810;4.394;2023-04-03T06:21:42;26.92;;;13.88;;
23539;SDS011;11947;50.810;4.394;2023-04-03T06:24:08;28.65;;;15.10;;
23539;SDS011;11947;50.810;4.394;2023-04-03T06:26:37;28.55;;;14.25;;
23539;SDS011;11947;50.810;4.394;2023-04-03T06:29:02;28.95;;;14.15;;
23539;SDS011;11947;50.810;4.394;2023-04-03T06:31:28;30.23;;;15.13;;
23539;SDS011;11947;50.810;4.394;2023-04-03T06:33:54;31.83;;;15.30;;
23539;SDS011;11947;50.810;4.394;2023-04-03T06:36:21;28.73;;;15.35;;
23539;SDS011;11947;50.810;4.394;2023-04-03T06:38:47;29.40;;;15.18;;
23539;SDS011;11947;50.810;4.394;2023-04-03T06:41:13;30.63;;;15.23;;
23539;SDS011;11947;50.810;4.394;2023-04-03T06:43:38;29.45;;;15.25;;
23539;SDS011;11947;50.810;4.394;2023-04-03T06:46:04;30.95;;;16.08;;
23539;SDS011;11947;50.810;4.394;2023-04-03T06:48:30;28.73;;;15.52;;
23539;SDS011;11947;50.810;4.394;2023-04-03T06:50:56;31.45;;;14.13;;
23539;SDS011;11947;50.810;4.394;2023-04-03T06:53:22;27.38;;;14.90;;
23539;SDS011;11947;50.810;4.394;2023-04-03T06:55:47;25.70;;;15.00;;
23539;SDS011;11947;50.810;4.394;2023-04-03T06:58:13;29.48;;;13.60;;
23539;SDS011;11947;50.810;4.394;2023-04-03T07:00:40;32.13;;;13.32;;
23539;SDS011;11947;50.810;4.394;2023-04-03T07:03:06;27.48;;;14.73;;
23539;SDS011;11947;50.810;4.394;2023-04-03T07:05:31;28.13;;;14.35;;
23539;SDS011;11947;50.810;4.394;2023-04-03T07:07:57;28.10;;;14.25;;
23539;SDS011;11947;50.810;4.394;2023-04-03T07:10:22;28.80;;;14.43;;
23539;SDS011;11947;50.810;4.394;2023-04-03T07:12:48;26.38;;;13.68;;
23539;SDS011;11947;50.810;4.394;2023-04-03T07:15:14;25.67;;;13.40;;
23539;SDS011;11947;50.810;4.394;2023-04-03T07:17:40;31.48;;;13.45;;
23539;SDS011;11947;50.810;4.394;2023-04-03T07:20:05;25.67;;;13.65;;
23539;SDS011;11947;50.810;4.394;2023-04-03T07:22:32;23.67;;;12.30;;
23539;SDS011;11947;50.810;4.394;2023-04-03T07:24:57;23.98;;;12.43;;
23539;SDS011;11947;50.810;4.394;2023-04-03T07:27:24;23.17;;;13.10;;
23539;SDS011;11947;50.810;4.394;2023-04-03T07:29:50;21.92;;;12.00;;
23539;SDS011;11947;50.810;4.394;2023-04-03T07:32:16;22.35;;;12.07;;
23539;SDS011;11947;50.810;4.394;2023-04-03T07:34:42;22.60;;;11.10;;
23539;SDS011;11947;50.810;4.394;2023-04-03T07:37:08;21.80;;;11.88;;
23539;SDS011;11947;50.810;4.394;2023-04-03T07:39:34;22.67;;;11.77;;
23539;SDS011;11947;50.810;4.394;2023-04-03T07:41:59;20.02;;;12.10;;
23539;SDS011;11947;50.810;4.394;2023-04-03T07:44:26;19.55;;;11.40;;
23539;SDS011;11947;50.810;4.394;2023-04-03T07:46:52;19.65;;;11.52;;
23539;SDS011;11947;50.810;4.394;2023-04-03T07:49:18;19.10;;;10.93;;
23539;SDS011;11947;50.810;4.394;2023-04-03T07:51:44;17.23;;;10.38;;
23539;SDS011;11947;50.810;4.394;2023-04-03T07:54:10;20.90;;;10.68;;
23539;SDS011;11947;50.810;4.394;2023-04-03T07:56:36;17.75;;;10.57;;
23539;SDS011;11947;50.810;4.394;2023-04-03T07:59:01;17.63;;;10.32;;
23539;SDS011;11947;50.810;4.394;2023-04-03T08:01:27;18.25;;;9.85;;
23539;SDS011;11947;50.810;4.394;2023-04-03T08:03:53;17.27;;;9.50;;
23539;SDS011;11947;50.810;4.394;2023-04-03T08:06:19;15.73;;;9.30;;
23539;SDS011;11947;50.810;4.394;2023-04-03T08:08:44;19.23;;;10.23;;
23539;SDS011;11947;50.810;4.394;2023-04-03T08:11:10;15.68;;;9.82;;
23539;SDS011;11947;50.810;4.394;2023-04-03T08:13:36;16.85;;;8.82;;
23539;SDS011;11947;50.810;4.394;2023-04-03T08:16:12;12.20;;;7.80;;
23539;SDS011;11947;50.810;4.394;2023-04-03T08:18:41;12.00;;;6.95;;
23539;SDS011;11947;50.810;4.394;2023-04-03T08:21:10;11.80;;;7.40;;
23539;SDS011;11947;50.810;4.394;2023-04-03T08:23:37;15.23;;;7.75;;
23539;SDS011;11947;50.810;4.394;2023-04-03T08:26:10;15.55;;;8.30;;
23539;SDS011;11947;50.810;4.394;2023-04-03T08:28:37;15.07;;;7.57;;
23539;SDS011;11947;50.810;4.394;2023-04-03T08:31:04;11.93;;;7.30;;
23539;SDS011;11947;50.810;4.394;2023-04-03T08:33:31;15.05;;;7.20;;
23539;SDS011;11947;50.810;4.394;2023-04-03T08:35:58;12.55;;;7.13;;
23539;SDS011;11947;50.810;4.394;2023-04-03T08:38:24;8.80;;;6.38;;
23539;SDS011;11947;50.810;4.394;2023-04-03T08:49:43;12.18;;;7.13;;
23539;SDS011;11947;50.810;4.394;2023-04-03T08:52:38;11.30;;;7.00;;
23539;SDS011;11947;50.810;4.394;2023-04-03T08:55:14;12.57;;;6.82;;
23539;SDS011;11947;50.810;4.394;2023-04-03T08:57:48;15.65;;;6.70;;
23539;SDS011;11947;50.810;4.394;2023-04-03T09:00:17;11.80;;;6.65;;
23539;SDS011;11947;50.810;4.394;2023-04-03T09:02:51;9.52;;;6.00;;
23539;SDS011;11947;50.810;4.394;2023-04-03T09:05:21;12.60;;;6.00;;
23539;SDS011;11947;50.810;4.394;2023-04-03T09:08:31;11.43;;;5.65;;
23539;SDS011;11947;50.810;4.394;2023-04-03T09:11:20;10.70;;;5.60;;
23539;SDS011;11947;50.810;4.394;2023-04-03T09:14:02;10.57;;;5.30;;
23539;SDS011;11947;50.810;4.394;2023-04-03T09:16:42;12.93;;;5.32;;
23539;SDS011;11947;50.810;4.394;2023-04-03T09:21:58;8.52;;;5.15;;
23539;SDS011;11947;50.810;4.394;2023-04-03T09:24:27;7.60;;;4.43;;
23539;SDS011;11947;50.810;4.394;2023-04-03T09:26:57;10.48;;;5.05;;
23539;SDS011;11947;50.810;4.394;2023-04-03T09:29:28;11.68;;;5.60;;
23539;SDS011;11947;50.810;4.394;2023-04-03T09:31:59;8.65;;;4.50;;
23539;SDS011;11947;50.810;4.394;2023-04-03T09:34:35;9.55;;;4.75;;
23539;SDS011;11947;50.810;4.394;2023-04-03T09:37:02;9.27;;;4.50;;
23539;SDS011;11947;50.810;4.394;2023-04-03T09:39:31;8.18;;;4.40;;
23539;SDS011;11947;50.810;4.394;2023-04-03T09:42:22;7.20;;;3.90;;
23539;SDS011;11947;50.810;4.394;2023-04-03T09:44:53;6.50;;;3.22;;
23539;SDS011;11947;50.810;4.394;2023-04-03T09:52:39;8.07;;;3.53;;
23539;SDS011;11947;50.810;4.394;2023-04-03T09:55:19;20.17;;;4.13;;
23539;SDS011;11947;50.810;4.394;2023-04-03T09:57:53;8.82;;;2.83;;
23539;SDS011;11947;50.810;4.394;2023-04-03T10:02:58;6.20;;;3.20;;
23539;SDS011;11947;50.810;4.394;2023-04-03T10:05:26;6.80;;;2.70;;
23539;SDS011;11947;50.810;4.394;2023-04-03T10:08:14;6.80;;;2.55;;
23539;SDS011;11947;50.810;4.394;2023-04-03T10:10:47;5.25;;;2.72;;
23539;SDS011;11947;50.810;4.394;2023-04-03T10:13:29;5.63;;;2.80;;
23539;SDS011;11947;50.810;4.394;2023-04-03T10:15:56;24.05;;;4.95;;
23539;SDS011;11947;50.810;4.394;2023-04-03T10:24:05;5.30;;;2.65;;
23539;SDS011;11947;50.810;4.394;2023-04-03T10:26:36;5.40;;;2.42;;
23539;SDS011;11947;50.810;4.394;2023-04-03T10:34:39;5.22;;;2.67;;
23539;SDS011;11947;50.810;4.394;2023-04-03T10:37:29;4.22;;;2.70;;
23539;SDS011;11947;50.810;4.394;2023-04-03T10:48:49;4.40;;;2.35;;
23539;SDS011;11947;50.810;4.394;2023-04-03T10:51:35;5.43;;;2.00;;
23539;SDS011;11947;50.810;4.394;2023-04-03T10:54:12;4.18;;;2.50;;
23539;SDS011;11947;50.810;4.394;2023-04-03T10:57:24;5.15;;;2.63;;
23539;SDS011;11947;50.810;4.394;2023-04-03T10:59:44;5.53;;;2.60;;
23539;SDS011;11947;50.810;4.394;2023-04-03T11:05:00;3.85;;;2.35;;
23539;SDS011;11947;50.810;4.394;2023-04-03T11:07:41;3.97;;;2.40;;
23539;SDS011;11947;50.810;4.394;2023-04-03T11:10:21;4.25;;;2.45;;
23539;SDS011;11947;50.810;4.394;2023-04-03T11:15:36;4.03;;;2.53;;
23539;SDS011;11947;50.810;4.394;2023-04-03T11:18:03;5.10;;;2.35;;
23539;SDS011;11947;50.810;4.394;2023-04-03T11:20:58;6.63;;;2.80;;
23539;SDS011;11947;50.810;4.394;2023-04-03T11:23:33;5.85;;;3.60;;
23539;SDS011;11947;50.810;4.394;2023-04-03T11:26:07;7.72;;;2.97;;
23539;SDS011;11947;50.810;4.394;2023-04-03T11:28:37;5.35;;;2.40;;
23539;SDS011;11947;50.810;4.394;2023-04-03T11:36:53;3.92;;;2.20;;
23539;SDS011;11947;50.810;4.394;2023-04-03T11:39:34;3.73;;;2.20;;
23539;SDS011;11947;50.810;4.394;2023-04-03T11:43:05;5.22;;;3.45;;
23539;SDS011;11947;50.810;4.394;2023-04-03T11:51:02;4.97;;;2.00;;
23539;SDS011;11947;50.810;4.394;2023-04-03T11:53:37;4.20;;;1.90;;
23539;SDS011;11947;50.810;4.394;2023-04-03T12:01:46;5.50;;;2.80;;
23539;SDS011;11947;50.810;4.394;2023-04-03T12:04:13;7.28;;;2.30;;
23539;SDS011;11947;50.810;4.394;2023-04-03T12:09:31;4.57;;;1.90;;
23539;SDS011;11947;50.810;4.394;2023-04-03T12:14:52;2.78;;;1.77;;
23539;SDS011;11947;50.810;4.394;2023-04-03T12:17:22;3.40;;;1.90;;
23539;SDS011;11947;50.810;4.394;2023-04-03T12:19:51;2.88;;;1.90;;
23539;SDS011;11947;50.810;4.394;2023-04-03T12:22:18;4.95;;;2.00;;
23539;SDS011;11947;50.810;4.394;2023-04-03T12:24:46;4.03;;;2.17;;
23539;SDS011;11947;50.810;4.394;2023-04-03T12:27:33;5.15;;;2.17;;
23539;SDS011;11947;50.810;4.394;2023-04-03T12:35:47;6.35;;;2.15;;
23539;SDS011;11947;50.810;4.394;2023-04-03T12:46:45;4.07;;;1.98;;
23539;SDS011;11947;50.810;4.394;2023-04-03T12:49:35;3.83;;;2.08;;
23539;SDS011;11947;50.810;4.394;2023-04-03T12:52:40;4.70;;;2.28;;
23539;SDS011;11947;50.810;4.394;2023-04-03T12:55:02;5.85;;;2.15;;
23539;SDS011;11947;50.810;4.394;2023-04-03T12:57:32;4.50;;;1.83;;
23539;SDS011;11947;50.810;4.394;2023-04-03T12:59:58;3.85;;;1.70;;
23539;SDS011;11947;50.810;4.394;2023-04-03T13:02:28;4.20;;;1.90;;
23539;SDS011;11947;50.810;4.394;2023-04-03T13:04:57;2.75;;;1.70;;
23539;SDS011;11947;50.810;4.394;2023-04-03T13:07:37;3.47;;;1.90;;
23539;SDS011;11947;50.810;4.394;2023-04-03T13:12:34;2.40;;;1.63;;
23539;SDS011;11947;50.810;4.394;2023-04-03T13:15:22;2.78;;;1.67;;
23539;SDS011;11947;50.810;4.394;2023-04-03T13:17:55;2.30;;;1.50;;
23539;SDS011;11947;50.810;4.394;2023-04-03T13:20:24;2.17;;;1.50;;
23539;SDS011;11947;50.810;4.394;2023-04-03T13:22:52;2.88;;;1.45;;
23539;SDS011;11947;50.810;4.394;2023-04-03T13:25:20;1.83;;;1.20;;
23539;SDS011;11947;50.810;4.394;2023-04-03T13:27:47;3.25;;;1.38;;
23539;SDS011;11947;50.810;4.394;2023-04-03T13:32:49;5.20;;;1.70;;
23539;SDS011;11947;50.810;4.394;2023-04-03T13:35:32;6.20;;;1.55;;
23539;SDS011;11947;50.810;4.394;2023-04-03T13:38:24;3.72;;;1.60;;
23539;SDS011;11947;50.810;4.394;2023-04-03T13:40:50;3.70;;;1.50;;
23539;SDS011;11947;50.810;4.394;2023-04-03T13:43:25;2.92;;;1.67;;
23539;SDS011;11947;50.810;4.394;2023-04-03T13:45:53;5.60;;;1.90;;
23539;SDS011;11947;50.810;4.394;2023-04-03T13:48:34;5.07;;;1.90;;
23539;SDS011;11947;50.810;4.394;2023-04-03T13:53:50;4.47;;;1.92;;
23539;SDS011;11947;50.810;4.394;2023-04-03T13:56:26;4.22;;;1.90;;
23539;SDS011;11947;50.810;4.394;2023-04-03T13:58:53;3.53;;;1.88;;
23539;SDS011;11947;50.810;4.394;2023-04-03T14:01:22;6.10;;;2.13;;
23539;SDS011;11947;50.810;4.394;2023-04-03T14:03:53;3.58;;;1.73;;
23539;SDS011;11947;50.810;4.394;2023-04-03T14:06:34;4.43;;;2.10;;
23539;SDS011;11947;50.810;4.394;2023-04-03T14:09:00;4.00;;;2.00;;
23539;SDS011;11947;50.810;4.394;2023-04-03T14:11:28;4.38;;;2.00;;
23539;SDS011;11947;50.810;4.394;2023-04-03T14:13:56;3.65;;;2.00;;
23539;SDS011;11947;50.810;4.394;2023-04-03T14:16:25;3.85;;;2.05;;
23539;SDS011;11947;50.810;4.394;2023-04-03T14:18:54;4.30;;;1.77;;
23539;SDS011;11947;50.810;4.394;2023-04-03T14:21:21;4.97;;;1.90;;
23539;SDS011;11947;50.810;4.394;2023-04-03T14:23:47;3.28;;;1.75;;
23539;SDS011;11947;50.810;4.394;2023-04-03T14:26:13;3.00;;;1.80;;
23539;SDS011;11947;50.810;4.394;2023-04-03T14:28:43;3.70;;;1.60;;
23539;SDS011;11947;50.810;4.394;2023-04-03T14:31:15;5.80;;;1.60;;
23539;SDS011;11947;50.810;4.394;2023-04-03T14:33:41;3.67;;;1.73;;
23539;SDS011;11947;50.810;4.394;2023-04-03T14:36:11;2.88;;;1.83;;
23539;SDS011;11947;50.810;4.394;2023-04-03T14:38:43;4.32;;;1.75;;
23539;SDS011;11947;50.810;4.394;2023-04-03T14:41:13;3.95;;;2.28;;
23539;SDS011;11947;50.810;4.394;2023-04-03T14:43:40;3.28;;;1.85;;
23539;SDS011;11947;50.810;4.394;2023-04-03T14:46:15;2.90;;;1.75;;
23539;SDS011;11947;50.810;4.394;2023-04-03T14:48:43;3.17;;;1.40;;
23539;SDS011;11947;50.810;4.394;2023-04-03T14:51:10;4.90;;;1.73;;
23539;SDS011;11947;50.810;4.394;2023-04-03T14:53:37;3.10;;;1.48;;
23539;SDS011;11947;50.810;4.394;2023-04-03T14:56:05;2.22;;;1.60;;
23539;SDS011;11947;50.810;4.394;2023-04-03T14:58:37;3.10;;;1.42;;
23539;SDS011;11947;50.810;4.394;2023-04-03T15:01:03;3.53;;;1.70;;
23539;SDS011;11947;50.810;4.394;2023-04-03T15:03:28;3.63;;;1.65;;
23539;SDS011;11947;50.810;4.394;2023-04-03T15:05:54;5.40;;;1.63;;
23539;SDS011;11947;50.810;4.394;2023-04-03T15:08:23;4.93;;;1.70;;
23539;SDS011;11947;50.810;4.394;2023-04-03T15:10:51;2.63;;;1.58;;
23539;SDS011;11947;50.810;4.394;2023-04-03T15:13:18;3.78;;;1.83;;
23539;SDS011;11947;50.810;4.394;2023-04-03T15:15:45;2.30;;;1.45;;
23539;SDS011;11947;50.810;4.394;2023-04-03T15:21:06;6.43;;;1.98;;
23539;SDS011;11947;50.810;4.394;2023-04-03T15:23:32;4.82;;;1.92;;
23539;SDS011;11947;50.810;4.394;2023-04-03T15:25:57;5.72;;;1.90;;
23539;SDS011;11947;50.810;4.394;2023-04-03T15:28:28;3.33;;;1.70;;
23539;SDS011;11947;50.810;4.394;2023-04-03T15:31:06;5.38;;;1.73;;
23539;SDS011;11947;50.810;4.394;2023-04-03T15:33:33;6.35;;;2.10;;
23539;SDS011;11947;50.810;4.394;2023-04-03T15:35:59;3.67;;;2.00;;
23539;SDS011;11947;50.810;4.394;2023-04-03T15:38:25;4.75;;;1.92;;
23539;SDS011;11947;50.810;4.394;2023-04-03T15:40:50;3.47;;;1.60;;
23539;SDS011;11947;50.810;4.394;2023-04-03T15:43:16;5.20;;;1.98;;
23539;SDS011;11947;50.810;4.394;2023-04-03T15:45:43;4.88;;;2.25;;
23539;SDS011;11947;50.810;4.394;2023-04-03T15:48:09;6.47;;;2.03;;
23539;SDS011;11947;50.810;4.394;2023-04-03T15:50:37;3.78;;;1.85;;
23539;SDS011;11947;50.810;4.394;2023-04-03T15:53:03;7.60;;;2.28;;
23539;SDS011;11947;50.810;4.394;2023-04-03T15:55:30;7.03;;;1.80;;
23539;SDS011;11947;50.810;4.394;2023-04-03T15:57:57;4.95;;;2.05;;
23539;SDS011;11947;50.810;4.394;2023-04-03T16:00:23;4.57;;;2.15;;
23539;SDS011;11947;50.810;4.394;2023-04-03T16:02:51;4.38;;;1.98;;
23539;SDS011;11947;50.810;4.394;2023-04-03T16:05:20;3.55;;;1.90;;
23539;SDS011;11947;50.810;4.394;2023-04-03T16:07:46;7.07;;;2.30;;
23539;SDS011;11947;50.810;4.394;2023-04-03T16:10:12;6.32;;;2.40;;
23539;SDS011;11947;50.810;4.394;2023-04-03T16:12:39;5.63;;;2.30;;
23539;SDS011;11947;50.810;4.394;2023-04-03T16:15:05;6.03;;;2.10;;
23539;SDS011;11947;50.810;4.394;2023-04-03T16:17:32;6.13;;;2.17;;
23539;SDS011;11947;50.810;4.394;2023-04-03T16:19:58;7.00;;;2.20;;
23539;SDS011;11947;50.810;4.394;2023-04-03T16:22:25;4.30;;;1.90;;
23539;SDS011;11947;50.810;4.394;2023-04-03T16:24:52;5.53;;;2.38;;
23539;SDS011;11947;50.810;4.394;2023-04-03T16:27:20;5.38;;;2.22;;
23539;SDS011;11947;50.810;4.394;2023-04-03T16:29:46;5.35;;;2.20;;
23539;SDS011;11947;50.810;4.394;2023-04-03T16:32:12;5.97;;;2.28;;
23539;SDS011;11947;50.810;4.394;2023-04-03T16:34:38;5.15;;;2.17;;